Time;durP1;ratioP1;P1;durP2;ratioP2;P2;SDS_P1;SDS_P2;PMS_P1;PMS_P2;Temp;Humidity;BMP_temperature;BMP_pressure;BME280_temperature;BME280_humidity;BME280_pressure;Samples;Min_cycle;Max_cycle;Signal;HPM_P1;HPM_P2
2024/02/29 00:00:42;;;;;;;23.05;9.85;;;2.60;99.90;;;;;;5009154;28;20068;-69
2024/02/29 00:03:08;;;;;;;24.20;10.23;;;2.60;99.90;;;;;;5003629;28;20030;-69
2024/02/29 00:05:36;;;;;;;26.65;11.18;;;2.60;99.90;;;;;;5008428;28;20039;-69
2024/02/29 00:08:02;;;;;;;24.00;10.60;;;2.60;99.90;;;;;;5009983;28;20728;-69
2024/02/29 00:10:28;;;;;;;23.13;10.43;;;2.60;99.90;;;;;;5005376;28;20523;-69
2024/02/29 00:12:54;;;;;;;21.58;10.32;;;2.60;99.90;;;;;;5008644;28;20068;-69
2024/02/29 00:15:20;;;;;;;30.33;11.77;;;2.60;99.90;;;;;;5008850;28;20458;-69
2024/02/29 00:17:46;;;;;;;22.33;9.68;;;2.70;99.90;;;;;;5004189;28;20030;-69
2024/02/29 00:20:12;;;;;;;26.38;10.90;;;2.70;99.90;;;;;;5008975;28;19923;-69
2024/02/29 00:22:38;;;;;;;23.08;11.40;;;2.70;99.90;;;;;;5011480;28;20057;-69
2024/02/29 00:25:04;;;;;;;25.52;11.48;;;2.70;99.90;;;;;;5005660;28;20079;-69
2024/02/29 00:27:30;;;;;;;23.30;11.15;;;2.70;99.90;;;;;;5008269;28;20117;-69
2024/02/29 00:29:57;;;;;;;29.40;11.95;;;2.80;99.90;;;;;;5010500;28;20145;-69
2024/02/29 00:32:23;;;;;;;30.17;12.57;;;2.70;99.90;;;;;;5002942;28;20034;-69
2024/02/29 00:34:49;;;;;;;26.50;11.52;;;2.70;99.90;;;;;;5008059;28;20107;-69
2024/02/29 00:37:15;;;;;;;23.50;11.38;;;2.70;99.90;;;;;;5011821;28;20719;-69
2024/02/29 00:39:41;;;;;;;25.80;11.48;;;2.70;99.90;;;;;;5006184;28;20521;-69
2024/02/29 00:42:07;;;;;;;26.08;11.65;;;2.70;99.90;;;;;;5007330;28;20034;-69
2024/02/29 00:44:33;;;;;;;29.15;12.48;;;2.80;99.90;;;;;;5010746;28;20034;-69
2024/02/29 00:46:59;;;;;;;27.80;12.52;;;2.80;99.90;;;;;;5005092;28;20029;-69
2024/02/29 00:49:25;;;;;;;31.92;12.63;;;2.80;99.90;;;;;;5007891;28;20545;-69
2024/02/29 00:51:51;;;;;;;29.13;12.55;;;2.80;99.90;;;;;;5010821;28;20033;-69
2024/02/29 00:54:17;;;;;;;30.15;12.65;;;2.80;99.90;;;;;;5004157;28;20111;-69
2024/02/29 00:56:42;;;;;;;29.45;13.20;;;2.80;99.90;;;;;;5007115;28;20455;-69
2024/02/29 00:59:08;;;;;;;32.88;13.02;;;2.80;99.90;;;;;;5009522;28;20061;-69
2024/02/29 01:01:34;;;;;;;28.55;12.73;;;2.80;99.90;;;;;;5005728;28;20045;-69
2024/02/29 01:04:00;;;;;;;30.25;13.32;;;2.70;99.90;;;;;;5006990;28;20040;-69
2024/02/29 01:06:26;;;;;;;31.40;12.43;;;2.80;99.90;;;;;;5009778;28;20034;-69
2024/02/29 01:08:52;;;;;;;31.27;13.43;;;2.70;99.90;;;;;;5005092;28;20063;-69
2024/02/29 01:11:18;;;;;;;33.85;13.70;;;2.70;99.90;;;;;;5006281;28;20026;-69
2024/02/29 01:13:43;;;;;;;35.40;14.63;;;2.70;99.90;;;;;;5008395;28;20103;-69
2024/02/29 01:16:09;;;;;;;29.80;12.98;;;2.70;99.90;;;;;;5013675;28;20839;-69
2024/02/29 01:18:35;;;;;;;31.25;14.50;;;2.70;99.90;;;;;;5003528;28;20872;-69
2024/02/29 01:21:01;;;;;;;32.88;14.25;;;2.70;99.90;;;;;;5007464;28;20028;-69
2024/02/29 01:23:27;;;;;;;31.50;14.10;;;2.60;99.90;;;;;;5004737;28;20026;-69
2024/02/29 01:25:53;;;;;;;33.95;14.43;;;2.60;99.90;;;;;;5002444;28;20025;-69
2024/02/29 01:28:18;;;;;;;32.20;13.65;;;2.70;99.90;;;;;;5006730;28;20029;-69
2024/02/29 01:30:44;;;;;;;29.67;13.52;;;2.70;99.90;;;;;;5004075;28;20034;-69
2024/02/29 01:33:10;;;;;;;35.40;14.57;;;2.70;99.90;;;;;;5005700;28;20505;-69
2024/02/29 01:35:37;;;;;;;40.80;14.77;;;2.70;99.90;;;;;;5007697;28;20030;-69
2024/02/29 01:38:03;;;;;;;35.80;14.30;;;2.60;99.90;;;;;;5006463;28;20655;-69
2024/02/29 01:40:30;;;;;;;27.73;13.40;;;2.60;99.90;;;;;;5005274;28;20038;-69
2024/02/29 01:42:56;;;;;;;33.58;15.27;;;2.60;99.90;;;;;;5008723;28;20524;-69
2024/02/29 01:45:21;;;;;;;32.65;14.65;;;2.60;99.90;;;;;;5006755;28;20116;-69
2024/02/29 01:47:48;;;;;;;30.10;13.60;;;2.60;99.90;;;;;;5005336;28;20047;-70
2024/02/29 01:50:15;;;;;;;32.45;13.93;;;2.60;99.90;;;;;;5009279;28;20030;-69
2024/02/29 01:52:43;;;;;;;32.53;14.15;;;2.60;99.90;;;;;;5003906;28;20050;-69
2024/02/29 01:55:10;;;;;;;35.80;15.23;;;2.60;99.90;;;;;;5004233;28;20038;-69
2024/02/29 01:57:36;;;;;;;31.45;14.00;;;2.50;99.90;;;;;;5010626;28;20036;-72
2024/02/29 02:00:05;;;;;;;32.65;14.02;;;2.50;99.90;;;;;;5009497;28;20489;-72
2024/02/29 02:02:33;;;;;;;34.42;15.10;;;2.50;99.90;;;;;;5008231;28;20036;-72
2024/02/29 02:04:59;;;;;;;36.10;15.52;;;2.50;99.90;;;;;;5012236;28;20029;-72
2024/02/29 02:07:25;;;;;;;37.33;15.23;;;2.50;99.90;;;;;;5008964;28;20033;-72
2024/02/29 02:09:51;;;;;;;34.97;15.60;;;2.50;99.90;;;;;;5020246;28;20038;-72
2024/02/29 02:12:16;;;;;;;32.92;14.77;;;2.50;99.90;;;;;;5011319;28;20048;-72
2024/02/29 02:14:43;;;;;;;36.83;15.52;;;2.50;99.90;;;;;;5009405;28;20448;-72
2024/02/29 02:17:12;;;;;;;39.35;15.57;;;2.50;99.90;;;;;;5006833;28;20030;-72
2024/02/29 02:19:39;;;;;;;36.63;16.00;;;2.40;99.90;;;;;;5011349;28;20425;-72
2024/02/29 02:22:04;;;;;;;38.53;14.93;;;2.40;99.90;;;;;;5010060;28;20022;-72
2024/02/29 02:24:33;;;;;;;34.28;15.57;;;2.40;99.90;;;;;;5006762;28;20645;-72
2024/02/29 02:26:58;;;;;;;43.55;16.45;;;2.50;99.90;;;;;;5010375;28;20022;-72
2024/02/29 02:29:24;;;;;;;38.53;16.45;;;2.50;99.90;;;;;;5009310;28;20036;-72
2024/02/29 02:31:50;;;;;;;35.30;15.10;;;2.40;99.90;;;;;;5007897;28;20038;-72
2024/02/29 02:34:16;;;;;;;39.08;16.17;;;2.50;99.90;;;;;;5012390;28;20041;-72
2024/02/29 02:36:42;;;;;;;36.65;16.42;;;2.50;99.90;;;;;;5009862;28;20517;-72
2024/02/29 02:39:08;;;;;;;40.03;16.02;;;2.50;99.90;;;;;;5006894;28;20050;-72
2024/02/29 02:41:34;;;;;;;38.42;16.58;;;2.50;99.90;;;;;;5011608;28;20038;-71
2024/02/29 02:43:59;;;;;;;37.33;17.00;;;2.50;99.90;;;;;;5007672;28;20034;-72
2024/02/29 02:46:25;;;;;;;42.88;16.73;;;2.50;99.90;;;;;;5008720;28;20104;-72
2024/02/29 02:48:51;;;;;;;41.30;16.65;;;2.40;99.90;;;;;;5010541;28;20056;-72
2024/02/29 02:51:17;;;;;;;37.58;16.45;;;2.40;99.90;;;;;;5009291;28;20052;-72
2024/02/29 02:53:43;;;;;;;37.95;16.63;;;2.40;99.90;;;;;;5006411;28;20030;-72
2024/02/29 02:56:08;;;;;;;38.10;16.15;;;2.40;99.90;;;;;;5009854;28;20456;-72
2024/02/29 02:58:35;;;;;;;35.40;16.02;;;2.40;99.90;;;;;;5012195;28;20104;-72
2024/02/29 03:01:01;;;;;;;35.83;15.57;;;2.50;99.90;;;;;;5008117;28;20460;-72
2024/02/29 03:03:27;;;;;;;36.55;15.27;;;2.40;99.90;;;;;;5011191;28;20029;-72
2024/02/29 03:05:53;;;;;;;35.28;14.35;;;2.40;99.90;;;;;;5009509;28;20026;-72
2024/02/29 03:08:20;;;;;;;41.00;16.40;;;2.40;99.90;;;;;;5007552;28;20038;-71
2024/02/29 03:10:47;;;;;;;35.53;14.35;;;2.50;99.90;;;;;;5008386;28;20044;-72
2024/02/29 03:13:12;;;;;;;34.63;14.95;;;2.60;99.90;;;;;;5010837;28;20037;-72
2024/02/29 03:15:40;;;;;;;33.40;14.88;;;2.60;99.90;;;;;;5005949;28;20038;-72
2024/02/29 03:18:08;;;;;;;34.58;15.55;;;2.50;99.90;;;;;;5011079;28;20556;-71
2024/02/29 03:20:34;;;;;;;38.72;15.38;;;2.50;99.90;;;;;;5010668;28;20045;-71
2024/02/29 03:23:00;;;;;;;33.30;14.27;;;2.40;99.90;;;;;;5007154;28;20026;-71
2024/02/29 03:25:26;;;;;;;37.63;15.45;;;2.30;99.90;;;;;;5010715;28;20109;-71
2024/02/29 03:27:52;;;;;;;39.38;17.35;;;2.30;99.90;;;;;;5009896;28;20029;-71
2024/02/29 03:30:18;;;;;;;32.45;14.00;;;2.30;99.90;;;;;;5007335;28;20029;-71
2024/02/29 03:32:43;;;;;;;37.13;15.65;;;2.20;99.90;;;;;;5009697;28;20061;-71
2024/02/29 03:35:10;;;;;;;40.83;16.25;;;2.20;99.90;;;;;;5008104;28;20168;-71
2024/02/29 03:37:35;;;;;;;40.60;16.17;;;2.20;99.90;;;;;;5006442;28;20044;-71
2024/02/29 03:40:01;;;;;;;34.05;15.10;;;2.20;99.90;;;;;;5010266;28;20030;-71
2024/02/29 03:42:27;;;;;;;36.35;14.60;;;2.30;99.90;;;;;;5011568;28;20029;-71
2024/02/29 03:44:53;;;;;;;41.13;16.25;;;2.30;99.90;;;;;;5004724;28;20038;-71
2024/02/29 03:47:19;;;;;;;33.92;14.85;;;2.20;99.90;;;;;;5008574;28;20042;-70
2024/02/29 03:49:45;;;;;;;43.92;16.65;;;2.20;99.90;;;;;;5011426;28;20049;-71
2024/02/29 03:52:11;;;;;;;42.20;17.20;;;2.20;99.90;;;;;;5002432;28;20030;-71
2024/02/29 03:54:36;;;;;;;42.45;18.65;;;2.10;99.90;;;;;;5007661;28;20045;-70
2024/02/29 03:57:02;;;;;;;39.60;16.02;;;2.10;99.90;;;;;;5012766;28;20072;-71
2024/02/29 03:59:28;;;;;;;38.80;16.70;;;2.10;99.90;;;;;;5005205;28;20034;-70
2024/02/29 04:01:55;;;;;;;40.08;16.10;;;2.00;99.90;;;;;;5009170;28;20031;-70
2024/02/29 04:04:22;;;;;;;38.03;15.15;;;2.10;99.90;;;;;;5011164;28;20022;-70
2024/02/29 04:06:48;;;;;;;40.58;16.05;;;2.10;99.90;;;;;;5005906;28;20034;-70
2024/02/29 04:09:14;;;;;;;41.30;16.85;;;2.10;99.90;;;;;;5007559;28;20037;-70
2024/02/29 04:11:39;;;;;;;39.58;15.95;;;2.10;99.90;;;;;;5010539;28;20046;-70
2024/02/29 04:14:05;;;;;;;38.97;17.38;;;2.20;99.90;;;;;;5013206;28;20054;-71
2024/02/29 04:16:35;;;;;;;46.65;16.88;;;2.20;99.90;;;;;;5013518;28;20038;-70
2024/02/29 04:19:02;;;;;;;45.35;17.83;;;2.30;99.90;;;;;;5014100;28;20140;-70
2024/02/29 04:21:28;;;;;;;43.30;18.05;;;2.20;99.90;;;;;;5015376;28;20030;-70
2024/02/29 04:23:54;;;;;;;42.30;16.40;;;2.20;99.90;;;;;;5016510;28;20107;-70
2024/02/29 04:26:20;;;;;;;44.17;16.73;;;2.10;99.90;;;;;;5015823;28;20034;-70
2024/02/29 04:28:46;;;;;;;39.00;15.73;;;2.10;99.90;;;;;;5014228;28;20041;-70
2024/02/29 04:31:11;;;;;;;44.47;17.90;;;2.00;99.90;;;;;;5011709;28;20088;-70
2024/02/29 04:33:37;;;;;;;43.65;17.63;;;2.10;99.90;;;;;;5016173;28;20030;-70
2024/02/29 04:36:03;;;;;;;40.17;16.48;;;2.10;99.90;;;;;;5013052;28;20088;-70
2024/02/29 04:38:29;;;;;;;41.70;16.85;;;2.10;99.90;;;;;;5016069;28;20595;-70
2024/02/29 04:40:55;;;;;;;44.13;16.80;;;2.10;99.90;;;;;;5013442;28;20029;-70
2024/02/29 04:43:21;;;;;;;43.67;17.00;;;2.10;99.90;;;;;;5012280;28;20030;-70
2024/02/29 04:45:48;;;;;;;43.47;17.25;;;2.10;99.90;;;;;;5012435;28;20038;-70
2024/02/29 04:48:13;;;;;;;49.28;18.15;;;2.10;99.90;;;;;;5013222;28;20040;-70
2024/02/29 04:50:39;;;;;;;43.80;17.40;;;2.10;99.90;;;;;;5008354;28;20030;-70
2024/02/29 04:53:05;;;;;;;43.67;17.33;;;2.10;99.90;;;;;;5014324;28;20108;-70
2024/02/29 04:55:31;;;;;;;40.88;16.90;;;2.10;99.90;;;;;;5012083;28;20105;-70
2024/02/29 04:57:57;;;;;;;43.05;17.63;;;2.20;99.90;;;;;;5009888;28;20110;-70
2024/02/29 05:00:23;;;;;;;36.47;15.13;;;2.20;99.90;;;;;;5007259;28;20042;-70
2024/02/29 05:02:49;;;;;;;41.38;16.63;;;2.20;99.90;;;;;;5016482;28;20144;-70
2024/02/29 05:05:15;;;;;;;44.20;18.05;;;2.10;99.90;;;;;;5012667;28;20087;-70
2024/02/29 05:07:41;;;;;;;46.78;17.42;;;2.10;99.90;;;;;;5010587;28;20033;-70
2024/02/29 05:10:07;;;;;;;39.25;16.67;;;2.10;99.90;;;;;;5015765;28;20045;-70
2024/02/29 05:12:34;;;;;;;46.28;18.67;;;2.10;99.90;;;;;;5014430;28;20029;-70
2024/02/29 05:15:00;;;;;;;43.20;16.23;;;2.10;99.90;;;;;;5019249;28;20790;-70
2024/02/29 05:17:26;;;;;;;42.42;17.17;;;2.10;99.90;;;;;;5012102;28;20033;-70
2024/02/29 05:19:51;;;;;;;48.63;18.45;;;2.10;99.90;;;;;;5020369;28;20033;-70
2024/02/29 05:22:18;;;;;;;48.65;17.42;;;2.10;99.90;;;;;;5020236;28;20040;-70
2024/02/29 05:24:44;;;;;;;45.92;16.88;;;2.20;99.90;;;;;;5018987;28;20017;-70
2024/02/29 05:27:10;;;;;;;48.08;18.70;;;2.10;99.90;;;;;;5016866;28;20036;-70
2024/02/29 05:29:35;;;;;;;48.95;18.52;;;2.10;99.90;;;;;;5020890;28;20030;-70
2024/02/29 05:32:01;;;;;;;43.00;17.25;;;2.10;99.90;;;;;;5022058;28;20037;-70
2024/02/29 05:34:27;;;;;;;41.88;16.15;;;2.00;99.90;;;;;;5024323;28;20033;-70
2024/02/29 05:36:53;;;;;;;45.38;18.15;;;2.10;99.90;;;;;;5024611;28;20036;-70
2024/02/29 05:39:19;;;;;;;40.90;18.00;;;2.00;99.90;;;;;;5039454;28;20183;-70
2024/02/29 05:41:45;;;;;;;48.10;18.92;;;2.00;99.90;;;;;;5022142;28;20108;-70
2024/02/29 05:44:10;;;;;;;44.35;17.08;;;2.00;99.90;;;;;;5022158;28;20033;-70
2024/02/29 05:46:36;;;;;;;47.50;19.00;;;1.90;99.90;;;;;;5021401;28;20112;-69
2024/02/29 05:49:02;;;;;;;48.25;18.73;;;2.00;99.90;;;;;;5021025;28;20108;-70
2024/02/29 05:51:28;;;;;;;56.45;19.38;;;2.00;99.90;;;;;;5021062;28;20120;-70
2024/02/29 05:53:54;;;;;;;53.88;19.83;;;2.00;99.90;;;;;;5022394;28;20590;-70
2024/02/29 05:56:20;;;;;;;48.40;18.00;;;2.00;99.90;;;;;;5021695;28;20497;-70
2024/02/29 05:58:46;;;;;;;47.03;18.92;;;2.00;99.90;;;;;;5021474;28;20040;-70
2024/02/29 06:01:12;;;;;;;45.97;18.63;;;1.90;99.90;;;;;;5020973;28;20033;-70
2024/02/29 06:03:38;;;;;;;52.50;19.88;;;1.90;99.90;;;;;;5022381;28;20116;-70
2024/02/29 06:06:09;;;;;;;47.67;18.77;;;1.90;99.90;;;;;;5022968;28;20024;-70
2024/02/29 06:08:35;;;;;;;48.17;17.73;;;1.90;99.90;;;;;;5022107;28;20034;-70
2024/02/29 06:11:01;;;;;;;48.88;19.05;;;1.90;99.90;;;;;;5021729;28;20040;-70
2024/02/29 06:13:28;;;;;;;43.78;17.35;;;2.00;99.90;;;;;;5021783;28;20033;-70
2024/02/29 06:15:55;;;;;;;48.10;18.77;;;2.00;99.90;;;;;;5021504;28;20037;-70
2024/02/29 06:18:21;;;;;;;52.83;19.33;;;2.00;99.90;;;;;;5020791;28;20154;-70
2024/02/29 06:20:47;;;;;;;50.25;18.77;;;2.00;99.90;;;;;;5022432;28;20448;-70
2024/02/29 06:23:13;;;;;;;47.22;18.77;;;2.20;99.90;;;;;;5020372;28;20543;-70
2024/02/29 06:25:40;;;;;;;43.83;17.73;;;2.20;99.90;;;;;;5021286;28;20037;-70
2024/02/29 06:28:06;;;;;;;50.22;18.58;;;2.20;99.90;;;;;;5020867;28;20036;-70
2024/02/29 06:30:31;;;;;;;44.90;18.20;;;2.30;99.90;;;;;;5020701;28;20034;-70
2024/02/29 06:33:00;;;;;;;55.47;19.70;;;2.30;99.90;;;;;;5020976;28;20029;-70
2024/02/29 06:35:27;;;;;;;43.30;17.27;;;2.40;99.90;;;;;;5022205;28;20045;-70
2024/02/29 06:37:53;;;;;;;50.60;19.10;;;2.30;99.90;;;;;;5021450;28;20032;-70
2024/02/29 06:40:21;;;;;;;51.17;18.42;;;2.40;99.90;;;;;;5021040;28;20429;-70
2024/02/29 06:42:48;;;;;;;46.60;18.13;;;2.50;99.90;;;;;;5020776;28;20034;-70
2024/02/29 06:45:16;;;;;;;53.45;19.13;;;2.50;99.90;;;;;;5021684;28;20049;-70
2024/02/29 06:47:42;;;;;;;51.65;19.13;;;2.60;99.90;;;;;;5020783;28;20429;-70
2024/02/29 06:50:10;;;;;;;46.47;17.55;;;2.60;99.90;;;;;;5021951;28;20120;-71
2024/02/29 06:52:36;;;;;;;48.13;17.95;;;2.70;99.90;;;;;;5021520;28;20414;-71
2024/02/29 06:55:06;;;;;;;47.15;18.33;;;2.70;99.90;;;;;;5020415;28;20025;-71
2024/02/29 06:57:33;;;;;;;48.55;16.63;;;2.70;99.90;;;;;;5019042;28;20033;-68
2024/02/29 06:59:59;;;;;;;50.47;18.77;;;2.80;99.90;;;;;;4996004;28;20033;-69
2024/02/29 07:02:25;;;;;;;46.95;17.98;;;2.90;99.90;;;;;;5019747;28;20040;-69
2024/02/29 07:04:51;;;;;;;47.75;17.98;;;3.00;99.90;;;;;;5017726;28;20034;-70
2024/02/29 07:07:18;;;;;;;45.03;17.70;;;3.00;99.90;;;;;;5021776;28;20060;-70
2024/02/29 07:09:44;;;;;;;47.22;17.65;;;3.00;99.90;;;;;;5019182;28;20072;-70
2024/02/29 07:12:09;;;;;;;48.72;18.63;;;3.20;99.90;;;;;;5016602;28;20116;-70
2024/02/29 07:14:35;;;;;;;50.40;18.65;;;3.20;99.90;;;;;;5015747;28;20044;-69
2024/02/29 07:17:01;;;;;;;46.00;17.27;;;3.20;99.90;;;;;;5018563;28;20499;-70
2024/02/29 07:19:27;;;;;;;49.35;18.10;;;3.20;99.90;;;;;;5017650;28;20946;-68
2024/02/29 07:21:53;;;;;;;47.53;16.88;;;3.30;99.90;;;;;;5005963;28;20046;-68
2024/02/29 07:24:19;;;;;;;50.47;19.38;;;3.30;99.90;;;;;;5021461;28;20485;-67
2024/02/29 07:26:45;;;;;;;51.08;18.38;;;3.40;99.90;;;;;;5019899;28;20071;-67
2024/02/29 07:29:11;;;;;;;46.95;17.80;;;3.40;99.90;;;;;;5017255;28;20041;-67
2024/02/29 07:31:41;;;;;;;53.75;18.25;;;3.50;99.90;;;;;;5021419;28;20048;-67
2024/02/29 07:34:10;;;;;;;45.53;16.05;;;3.60;99.90;;;;;;5020030;28;20047;-67
2024/02/29 07:36:37;;;;;;;49.90;18.17;;;3.70;99.90;;;;;;5021000;28;20157;-68
2024/02/29 07:39:03;;;;;;;48.38;18.13;;;3.70;99.90;;;;;;5024488;28;20467;-67
2024/02/29 07:41:29;;;;;;;53.55;19.15;;;3.70;99.90;;;;;;5020404;28;20037;-67
2024/02/29 07:43:55;;;;;;;45.28;18.63;;;3.80;99.90;;;;;;5020762;28;20041;-68
2024/02/29 07:46:21;;;;;;;48.78;19.40;;;3.80;99.90;;;;;;5021655;28;20037;-67
2024/02/29 07:48:47;;;;;;;49.25;18.55;;;3.90;99.90;;;;;;5020261;28;20064;-68
2024/02/29 07:51:17;;;;;;;45.33;17.83;;;4.00;99.90;;;;;;5019964;28;20033;-69
2024/02/29 07:53:43;;;;;;;44.38;18.20;;;4.10;99.90;;;;;;5018378;28;20562;-69
2024/02/29 07:56:09;;;;;;;46.33;18.42;;;4.10;99.90;;;;;;5017091;28;20037;-69
2024/02/29 07:58:35;;;;;;;54.25;18.85;;;4.40;99.90;;;;;;5019601;28;20044;-68
2024/02/29 08:01:02;;;;;;;51.13;18.00;;;4.90;99.90;;;;;;5019528;28;20092;-67
2024/02/29 08:03:28;;;;;;;47.03;18.50;;;5.40;99.90;;;;;;5022392;28;20053;-67
2024/02/29 08:05:55;;;;;;;44.55;17.42;;;6.00;99.90;;;;;;5021808;28;20056;-71
2024/02/29 08:08:21;;;;;;;45.88;17.02;;;6.40;99.90;;;;;;5035625;28;20035;-68
2024/02/29 08:10:47;;;;;;;41.22;17.02;;;6.60;99.90;;;;;;5018334;28;20034;-69
2024/02/29 08:13:13;;;;;;;40.80;16.52;;;6.60;99.90;;;;;;5020528;28;20473;-68
2024/02/29 08:15:39;;;;;;;41.85;17.48;;;6.80;99.90;;;;;;5019191;28;20123;-69
2024/02/29 08:18:06;;;;;;;39.40;15.40;;;6.80;99.90;;;;;;5021200;28;20032;-69
2024/02/29 08:20:32;;;;;;;38.65;15.85;;;6.90;99.90;;;;;;5019348;28;20036;-68
2024/02/29 08:22:57;;;;;;;35.78;15.43;;;6.90;99.90;;;;;;5020732;28;20018;-70
2024/02/29 08:25:26;;;;;;;41.22;16.98;;;6.90;99.90;;;;;;5020556;28;20360;-69
2024/02/29 08:27:52;;;;;;;37.95;15.45;;;6.90;99.90;;;;;;5019135;28;20029;-69
2024/02/29 08:30:18;;;;;;;35.00;15.38;;;6.90;99.90;;;;;;5016558;28;20572;-69
2024/02/29 08:32:45;;;;;;;36.97;15.82;;;6.90;99.90;;;;;;5019702;28;20037;-69
2024/02/29 08:35:11;;;;;;;38.75;15.60;;;6.80;99.90;;;;;;5019523;28;20029;-69
2024/02/29 08:37:37;;;;;;;34.67;16.10;;;6.70;99.90;;;;;;5018668;28;20048;-69
2024/02/29 08:40:04;;;;;;;35.67;16.40;;;6.60;99.90;;;;;;5019037;28;20630;-69
2024/02/29 08:42:30;;;;;;;35.40;15.70;;;6.50;99.90;;;;;;5018553;28;20045;-69
2024/02/29 08:44:57;;;;;;;38.05;15.73;;;6.50;99.90;;;;;;5020085;28;20033;-69
2024/02/29 08:47:22;;;;;;;35.10;15.32;;;6.30;99.90;;;;;;5019184;28;20447;-69
2024/02/29 08:49:48;;;;;;;39.97;15.63;;;6.30;99.90;;;;;;5019439;28;20116;-69
2024/02/29 08:52:14;;;;;;;34.83;15.10;;;6.30;99.90;;;;;;5018765;28;20488;-69
2024/02/29 08:54:40;;;;;;;31.77;13.75;;;6.30;99.90;;;;;;5016864;28;20033;-69
2024/02/29 08:57:07;;;;;;;33.60;14.90;;;6.30;99.90;;;;;;5018540;28;20517;-71
2024/02/29 08:59:33;;;;;;;31.33;13.93;;;6.50;99.90;;;;;;5017959;28;20040;-70
2024/02/29 09:02:02;;;;;;;37.60;15.80;;;6.60;99.90;;;;;;5018717;28;20021;-71
2024/02/29 09:04:28;;;;;;;39.25;16.77;;;6.90;99.90;;;;;;5014573;28;20033;-70
2024/02/29 09:06:56;;;;;;;36.92;16.40;;;7.00;99.90;;;;;;5015822;28;20859;-71
2024/02/29 09:09:22;;;;;;;30.48;13.68;;;7.10;99.90;;;;;;5016087;28;20608;-69
2024/02/29 09:11:48;;;;;;;32.50;14.27;;;7.20;99.90;;;;;;5016346;28;20030;-71
2024/02/29 09:14:14;;;;;;;32.60;13.23;;;7.40;99.90;;;;;;5018767;28;20049;-71
2024/02/29 09:16:40;;;;;;;33.63;14.02;;;7.60;99.90;;;;;;5018699;28;20157;-71
2024/02/29 09:19:06;;;;;;;28.85;13.07;;;8.00;99.90;;;;;;5016709;28;20057;-71
2024/02/29 09:21:31;;;;;;;27.10;12.32;;;8.30;99.90;;;;;;5017092;28;20489;-71
2024/02/29 09:23:57;;;;;;;36.47;14.10;;;8.90;99.90;;;;;;5018844;28;20099;-72
2024/02/29 09:26:23;;;;;;;32.53;13.40;;;9.70;99.90;;;;;;5018001;28;20061;-71
2024/02/29 09:28:49;;;;;;;30.60;13.50;;;10.40;99.90;;;;;;5017798;28;20021;-70
2024/02/29 09:31:15;;;;;;;30.70;13.00;;;10.70;99.10;;;;;;5018657;28;20040;-70
2024/02/29 09:33:41;;;;;;;27.67;13.68;;;10.60;99.10;;;;;;5018953;28;20196;-70
2024/02/29 09:36:11;;;;;;;29.05;13.80;;;10.60;99.20;;;;;;5016116;28;20041;-71
2024/02/29 09:38:37;;;;;;;30.13;13.35;;;10.40;99.20;;;;;;5016435;28;20037;-69
2024/02/29 09:41:09;;;;;;;31.42;13.02;;;10.10;99.70;;;;;;5014882;28;20033;-70
2024/02/29 09:43:35;;;;;;;29.92;12.85;;;10.10;99.90;;;;;;5018231;28;20034;-69
2024/02/29 09:46:06;;;;;;;26.90;12.93;;;10.10;99.90;;;;;;5016865;28;20034;-69
2024/02/29 09:48:32;;;;;;;32.35;13.45;;;10.20;99.90;;;;;;5016075;28;20041;-69
2024/02/29 09:51:03;;;;;;;28.25;12.27;;;10.60;99.50;;;;;;5015135;28;20521;-69
2024/02/29 09:53:29;;;;;;;25.02;12.90;;;11.30;98.20;;;;;;5016870;28;20675;-70
2024/02/29 09:55:56;;;;;;;23.50;11.45;;;11.90;97.00;;;;;;5016583;28;20033;-70
2024/02/29 09:58:22;;;;;;;26.65;11.27;;;12.60;95.70;;;;;;5018011;28;20136;-69
2024/02/29 10:00:48;;;;;;;26.08;12.65;;;13.20;93.70;;;;;;5017491;28;20062;-69
2024/02/29 10:03:16;;;;;;;25.50;12.60;;;13.60;92.30;;;;;;5018963;28;20034;-70
2024/02/29 10:05:46;;;;;;;24.67;11.57;;;13.60;91.60;;;;;;5018276;28;20040;-69
2024/02/29 10:08:12;;;;;;;24.92;11.73;;;13.30;91.20;;;;;;5018018;28;20037;-69
2024/02/29 10:10:38;;;;;;;25.20;12.00;;;13.30;91.70;;;;;;5016932;28;20088;-69
2024/02/29 10:13:06;;;;;;;28.90;13.27;;;13.20;91.80;;;;;;5018366;28;20056;-69
2024/02/29 10:15:33;;;;;;;26.67;12.55;;;13.40;91.90;;;;;;5019989;28;20512;-70
2024/02/29 10:18:00;;;;;;;26.52;12.32;;;13.50;91.00;;;;;;5019282;28;21117;-70
2024/02/29 10:20:27;;;;;;;25.50;12.35;;;13.60;90.20;;;;;;5022066;28;20587;-70
2024/02/29 10:22:53;;;;;;;24.98;12.10;;;13.80;90.40;;;;;;5020935;28;20520;-70
2024/02/29 10:25:20;;;;;;;24.75;11.98;;;14.10;88.90;;;;;;5021293;28;20048;-70
2024/02/29 10:27:46;;;;;;;23.48;11.57;;;14.40;87.50;;;;;;5019661;28;20037;-70
2024/02/29 10:30:17;;;;;;;25.88;12.57;;;14.70;85.50;;;;;;5022543;28;20033;-70
2024/02/29 10:32:45;;;;;;;23.92;12.07;;;15.00;84.30;;;;;;5020905;28;20041;-70
2024/02/29 10:35:20;;;;;;;21.10;10.82;;;15.20;81.90;;;;;;5021048;28;20029;-69
2024/02/29 10:37:47;;;;;;;22.77;11.05;;;16.10;82.00;;;;;;5020214;28;20427;-70
2024/02/29 10:40:13;;;;;;;21.35;12.07;;;16.90;76.00;;;;;;5019032;28;20057;-71
2024/02/29 10:42:40;;;;;;;21.73;11.07;;;17.70;72.80;;;;;;5017680;28;20032;-68
2024/02/29 10:45:15;;;;;;;21.55;11.52;;;18.10;68.90;;;;;;5022289;28;20045;-70
2024/02/29 10:47:49;;;;;;;24.70;11.80;;;18.30;69.70;;;;;;5021524;28;20478;-69
2024/02/29 10:50:27;;;;;;;22.15;11.45;;;18.10;68.60;;;;;;5021706;28;20044;-69
2024/02/29 10:53:15;;;;;;;17.45;10.27;;;17.70;69.40;;;;;;5020260;28;20108;-68
2024/02/29 10:55:51;;;;;;;22.52;11.93;;;16.80;71.00;;;;;;5018801;28;20063;-69
2024/02/29 10:58:25;;;;;;;18.70;10.35;;;16.30;73.10;;;;;;5018535;28;20073;-68
2024/02/29 11:00:52;;;;;;;19.50;10.45;;;15.10;75.60;;;;;;5021770;28;20036;-68
2024/02/29 11:03:18;;;;;;;18.70;9.90;;;15.50;75.10;;;;;;5020443;28;20501;-68
2024/02/29 11:05:46;;;;;;;20.70;11.32;;;16.60;74.70;;;;;;5020968;28;20028;-68
2024/02/29 11:08:12;;;;;;;19.35;10.07;;;17.40;70.20;;;;;;5021113;28;20017;-70
2024/02/29 11:10:38;;;;;;;19.20;10.18;;;17.80;69.90;;;;;;5017861;28;20651;-70
2024/02/29 11:13:04;;;;;;;20.05;10.23;;;17.50;67.50;;;;;;5020587;28;20036;-67
2024/02/29 11:15:31;;;;;;;18.60;10.75;;;17.50;68.50;;;;;;5021644;28;20130;-69
2024/02/29 11:18:00;;;;;;;21.33;10.10;;;16.60;71.10;;;;;;5021020;28;20041;-67
2024/02/29 11:20:27;;;;;;;18.13;10.25;;;16.90;71.50;;;;;;5020713;28;20029;-68
2024/02/29 11:23:03;;;;;;;21.77;11.13;;;17.20;70.30;;;;;;5019499;28;20701;-68
2024/02/29 11:25:30;;;;;;;16.13;9.90;;;17.70;69.30;;;;;;5020004;28;20556;-69
2024/02/29 11:27:56;;;;;;;22.35;11.60;;;17.10;69.50;;;;;;5020132;28;20026;-68
2024/02/29 11:30:23;;;;;;;16.25;9.57;;;15.30;74.40;;;;;;5021002;28;20041;-69
2024/02/29 11:32:51;;;;;;;16.67;9.60;;;14.10;80.00;;;;;;5020189;28;20037;-70
2024/02/29 11:35:17;;;;;;;15.35;9.38;;;13.50;81.10;;;;;;5016897;28;20051;-68
2024/02/29 11:37:44;;;;;;;20.48;10.40;;;12.90;85.10;;;;;;5016419;28;20053;-67
2024/02/29 11:40:17;;;;;;;17.17;9.43;;;12.60;86.20;;;;;;5019646;28;20087;-67
2024/02/29 11:42:43;;;;;;;19.00;10.00;;;12.40;86.20;;;;;;5019823;28;20038;-67
2024/02/29 11:45:19;;;;;;;17.10;10.18;;;12.20;89.20;;;;;;5021581;28;20029;-70
2024/02/29 11:47:45;;;;;;;13.75;8.88;;;11.90;90.60;;;;;;5020891;28;20021;-69
2024/02/29 11:50:11;;;;;;;13.68;9.10;;;11.90;90.90;;;;;;5019880;28;20041;-67
2024/02/29 11:52:39;;;;;;;14.30;8.55;;;11.90;90.30;;;;;;5018272;28;20045;-67
2024/02/29 11:55:05;;;;;;;14.82;8.48;;;12.00;90.30;;;;;;5017738;28;20056;-69
2024/02/29 11:57:32;;;;;;;17.02;9.23;;;11.90;90.00;;;;;;5021281;28;20563;-69
2024/02/29 11:59:58;;;;;;;15.30;9.38;;;11.90;91.20;;;;;;5017041;28;20037;-69
2024/02/29 12:02:24;;;;;;;19.90;10.82;;;11.90;91.10;;;;;;5020448;28;20783;-68
2024/02/29 12:04:50;;;;;;;23.67;12.32;;;12.10;91.50;;;;;;5018481;28;20064;-69
2024/02/29 12:07:16;;;;;;;14.18;9.10;;;12.20;91.10;;;;;;5019324;28;20524;-69
2024/02/29 12:09:42;;;;;;;16.75;9.90;;;12.40;90.90;;;;;;5016917;28;20026;-69
2024/02/29 12:12:10;;;;;;;14.55;8.57;;;12.20;91.40;;;;;;5019315;28;20052;-71
2024/02/29 12:14:38;;;;;;;16.77;8.73;;;12.20;91.40;;;;;;5018646;28;20065;-68
2024/02/29 12:17:05;;;;;;;14.98;8.77;;;12.30;90.90;;;;;;5019515;28;20095;-68
2024/02/29 12:19:31;;;;;;;18.83;10.68;;;12.20;91.70;;;;;;5018623;28;20044;-68
2024/02/29 12:21:57;;;;;;;16.20;9.18;;;12.20;92.10;;;;;;5019436;28;20033;-68
2024/02/29 12:24:23;;;;;;;15.38;9.07;;;12.30;91.70;;;;;;5017294;28;20148;-69
2024/02/29 12:26:49;;;;;;;14.23;7.78;;;12.10;92.00;;;;;;5020213;28;20025;-68
2024/02/29 12:29:15;;;;;;;12.52;8.05;;;11.90;91.70;;;;;;5021209;28;20463;-69
2024/02/29 12:31:41;;;;;;;14.52;7.82;;;11.90;90.90;;;;;;5019659;28;20026;-69